Time;durP1;ratioP1;P1;durP2;ratioP2;P2;SDS_P1;SDS_P2;PMS_P1;PMS_P2;Temp;Humidity;BMP_temperature;BMP_pressure;BME280_temperature;BME280_humidity;BME280_pressure;Samples;Min_cycle;Max_cycle;Signal;HPM_P1;HPM_P2
2022/09/01 00:01:50;;;;;;;15.00;13.30;;;;;;;;;;6215446;23;19997;-77
2022/09/01 00:04:18;;;;;;;15.20;13.68;;;;;;;;;;6215196;23;20028;-77
2022/09/01 00:06:45;;;;;;;14.85;13.35;;;;;;;;;;6215524;23;19997;-77
2022/09/01 00:09:13;;;;;;;14.55;13.13;;;;;;;;;;6215513;23;20000;-77
2022/09/01 00:11:40;;;;;;;15.30;13.80;;;;;;;;;;6214990;23;20047;-77
2022/09/01 00:14:07;;;;;;;15.48;13.68;;;;;;;;;;6215401;23;20699;-77
2022/09/01 00:16:33;;;;;;;16.27;14.77;;;;;;;;;;6214628;23;20004;-77
2022/09/01 00:18:59;;;;;;;15.52;14.02;;;;;;;;;;6215263;23;20000;-77
2022/09/01 00:21:30;;;;;;;15.77;14.27;;;;;;;;;;6214948;23;20001;-78
2022/09/01 00:23:56;;;;;;;15.75;14.25;;;;;;;;;;6215018;23;20032;-77
2022/09/01 00:26:23;;;;;;;17.23;15.45;;;;;;;;;;6214924;23;20428;-77
2022/09/01 00:28:50;;;;;;;16.75;13.73;;;;;;;;;;6215285;23;20071;-77
2022/09/01 00:31:18;;;;;;;15.50;14.05;;;;;;;;;;6214924;23;20454;-77
2022/09/01 00:33:45;;;;;;;15.00;13.55;;;;;;;;;;6214751;23;20016;-77
2022/09/01 00:36:11;;;;;;;14.32;12.88;;;;;;;;;;6214896;23;20075;-78
2022/09/01 00:38:37;;;;;;;14.85;13.48;;;;;;;;;;6214967;23;20451;-77
2022/09/01 00:41:04;;;;;;;15.13;13.48;;;;;;;;;;6215373;23;20023;-77
2022/09/01 00:43:37;;;;;;;17.05;14.18;;;;;;;;;;6214561;23;20012;-78
2022/09/01 00:46:04;;;;;;;15.20;13.70;;;;;;;;;;6215134;23;20000;-77
2022/09/01 00:48:31;;;;;;;16.20;14.52;;;;;;;;;;6214628;23;20072;-77
2022/09/01 00:50:57;;;;;;;16.25;14.65;;;;;;;;;;6215039;23;20074;-77
2022/09/01 00:53:23;;;;;;;17.50;13.85;;;;;;;;;;6214737;23;20005;-77
2022/09/01 00:55:50;;;;;;;16.73;15.15;;;;;;;;;;6215036;23;20364;-77
2022/09/01 00:58:16;;;;;;;16.00;14.43;;;;;;;;;;6214595;23;20000;-78
2022/09/01 01:00:43;;;;;;;17.77;15.93;;;;;;;;;;6215000;23;20081;-77
2022/09/01 01:03:11;;;;;;;16.55;14.93;;;;;;;;;;6214680;23;20008;-77
2022/09/01 01:05:39;;;;;;;17.38;15.68;;;;;;;;;;6214600;23;20448;-77
2022/09/01 01:08:07;;;;;;;17.73;16.08;;;;;;;;;;6214870;23;19997;-77
2022/09/01 01:10:34;;;;;;;16.35;14.65;;;;;;;;;;6214481;23;20024;-77
2022/09/01 01:13:01;;;;;;;16.60;14.93;;;;;;;;;;6215007;23;20009;-77
2022/09/01 01:15:28;;;;;;;16.85;15.13;;;;;;;;;;6214371;23;20044;-77
2022/09/01 01:17:55;;;;;;;16.50;14.93;;;;;;;;;;6214754;23;20001;-77
2022/09/01 01:23:10;;;;;;;15.43;13.98;;;;;;;;;;6214328;23;20015;-77
2022/09/01 01:25:44;;;;;;;17.20;14.63;;;;;;;;;;6214753;23;19997;-77
2022/09/01 01:28:18;;;;;;;15.60;14.10;;;;;;;;;;6214338;23;20028;-77
2022/09/01 01:30:44;;;;;;;;;;;;;;;;;;6214953;23;20008;-77
2022/09/01 01:33:10;;;;;;;16.23;14.48;;;;;;;;;;6214490;23;19904;-77
2022/09/01 01:35:36;;;;;;;16.83;15.23;;;;;;;;;;6214586;23;20009;-78
2022/09/01 01:38:06;;;;;;;16.27;14.77;;;;;;;;;;6214240;23;20000;-77
2022/09/01 01:40:33;;;;;;;16.52;15.02;;;;;;;;;;6214549;23;20074;-77
2022/09/01 01:43:00;;;;;;;16.33;14.82;;;;;;;;;;6214189;23;20075;-78
2022/09/01 01:45:27;;;;;;;15.20;13.73;;;;;;;;;;6214296;23;20420;-77
2022/09/01 01:47:53;;;;;;;15.18;13.68;;;;;;;;;;6214243;23;19996;-77
2022/09/01 01:50:21;;;;;;;15.43;13.93;;;;;;;;;;6214677;23;20011;-78
2022/09/01 01:52:47;;;;;;;14.35;12.93;;;;;;;;;;6214285;23;20005;-78
2022/09/01 01:55:18;;;;;;;16.50;14.88;;;;;;;;;;6214535;23;20075;-77
2022/09/01 01:57:48;;;;;;;17.02;14.15;;;;;;;;;;6214416;23;20001;-77
2022/09/01 02:00:18;;;;;;;14.98;13.38;;;;;;;;;;6214469;23;20897;-77
2022/09/01 02:02:51;;;;;;;16.15;14.65;;;;;;;;;;6213969;23;20432;-78
2022/09/01 02:05:20;;;;;;;15.53;14.13;;;;;;;;;;6214514;23;20001;-77
2022/09/01 02:07:47;;;;;;;16.88;15.15;;;;;;;;;;6214127;23;20115;-77
2022/09/01 02:10:13;;;;;;;17.20;15.50;;;;;;;;;;6214433;23;19997;-77
2022/09/01 02:12:40;;;;;;;15.98;14.52;;;;;;;;;;6214167;23;20019;-78
2022/09/01 02:15:07;;;;;;;16.58;14.88;;;;;;;;;;6214300;23;20071;-77
2022/09/01 02:17:33;;;;;;;16.67;15.07;;;;;;;;;;6214223;23;20491;-77
2022/09/01 02:19:59;;;;;;;16.50;14.80;;;;;;;;;;6214181;23;19996;-77
2022/09/01 02:22:25;;;;;;;17.10;14.73;;;;;;;;;;6214264;23;20460;-77
2022/09/01 02:24:52;;;;;;;16.25;14.70;;;;;;;;;;6214018;23;20035;-77
2022/09/01 02:27:23;;;;;;;16.25;14.52;;;;;;;;;;6214370;23;20376;-77
2022/09/01 02:29:52;;;;;;;16.73;15.18;;;;;;;;;;6213993;23;20005;-77
2022/09/01 02:32:20;;;;;;;16.00;14.52;;;;;;;;;;6214322;23;20032;-77
2022/09/01 02:34:48;;;;;;;17.00;15.40;;;;;;;;;;6213973;23;20324;-78
2022/09/01 02:37:15;;;;;;;16.45;14.85;;;;;;;;;;6214280;23;20027;-77
2022/09/01 02:39:41;;;;;;;17.70;15.90;;;;;;;;;;6214072;23;20427;-77
2022/09/01 02:42:07;;;;;;;17.05;15.48;;;;;;;;;;6214422;23;20004;-77
2022/09/01 02:44:33;;;;;;;17.52;15.77;;;;;;;;;;6214145;23;20008;-77
2022/09/01 02:47:00;;;;;;;18.45;16.52;;;;;;;;;;6214280;23;20001;-77
2022/09/01 02:49:28;;;;;;;17.00;15.30;;;;;;;;;;6214521;23;20021;-77
2022/09/01 02:51:58;;;;;;;17.60;15.90;;;;;;;;;;6214043;23;20332;-77
2022/09/01 02:54:26;;;;;;;17.88;16.08;;;;;;;;;;6214133;23;20000;-77
2022/09/01 02:56:53;;;;;;;18.23;16.63;;;;;;;;;;6215496;23;20309;-77
2022/09/01 02:59:20;;;;;;;18.08;16.17;;;;;;;;;;6216105;23;20000;-78
2022/09/01 03:01:46;;;;;;;16.40;14.68;;;;;;;;;;6215780;23;20011;-77
2022/09/01 03:04:13;;;;;;;17.25;15.75;;;;;;;;;;6215938;23;20004;-77
2022/09/01 03:06:39;;;;;;;17.58;15.90;;;;;;;;;;6215690;23;20000;-77
2022/09/01 03:09:07;;;;;;;18.40;16.55;;;;;;;;;;6216020;23;20047;-77
2022/09/01 03:11:35;;;;;;;17.35;15.65;;;;;;;;;;6215818;23;20001;-78
2022/09/01 03:14:01;;;;;;;17.83;16.23;;;;;;;;;;6216221;23;20000;-77
2022/09/01 03:16:29;;;;;;;17.70;15.88;;;;;;;;;;6215814;23;20032;-78
2022/09/01 03:18:55;;;;;;;17.13;15.63;;;;;;;;;;6215907;23;20087;-77
2022/09/01 03:21:22;;;;;;;17.52;15.48;;;;;;;;;;6215876;23;20007;-78
2022/09/01 03:23:49;;;;;;;18.20;16.17;;;;;;;;;;6215498;23;20008;-77
2022/09/01 03:26:17;;;;;;;18.30;16.42;;;;;;;;;;6215831;23;20000;-77
2022/09/01 03:28:43;;;;;;;17.55;15.95;;;;;;;;;;6215486;23;19996;-77
2022/09/01 03:31:09;;;;;;;16.42;14.85;;;;;;;;;;6215816;23;20001;-78
2022/09/01 03:33:36;;;;;;;18.85;16.90;;;;;;;;;;6215530;23;20024;-77
2022/09/01 03:36:02;;;;;;;30.92;27.85;;;;;;;;;;6215650;23;20054;-77
2022/09/01 03:38:28;;;;;;;19.20;16.88;;;;;;;;;;6215728;23;20008;-77
2022/09/01 03:41:00;;;;;;;18.75;17.00;;;;;;;;;;6215153;23;20004;-77
2022/09/01 03:43:28;;;;;;;17.95;16.15;;;;;;;;;;6215585;23;20022;-77
2022/09/01 03:45:59;;;;;;;19.35;17.45;;;;;;;;;;6215446;23;19997;-77
2022/09/01 03:48:27;;;;;;;17.67;15.98;;;;;;;;;;6215526;23;20328;-77
2022/09/01 03:50:54;;;;;;;17.58;15.93;;;;;;;;;;6215477;23;19997;-77
2022/09/01 03:53:21;;;;;;;27.52;24.73;;;;;;;;;;6215656;23;20005;-77
2022/09/01 03:55:48;;;;;;;21.85;19.60;;;;;;;;;;6215334;23;20004;-77
2022/09/01 03:58:17;;;;;;;18.08;16.17;;;;;;;;;;6215773;23;20032;-77
2022/09/01 04:00:45;;;;;;;18.25;16.42;;;;;;;;;;6214839;23;20486;-77
2022/09/01 04:03:12;;;;;;;17.10;15.32;;;;;;;;;;6214437;23;20009;-77
2022/09/01 04:05:39;;;;;;;17.88;15.93;;;;;;;;;;6215331;23;20448;-77
2022/09/01 04:08:09;;;;;;;22.13;18.20;;;;;;;;;;6214787;23;20016;-77
2022/09/01 04:10:37;;;;;;;22.35;20.15;;;;;;;;;;6215538;23;20016;-77
2022/09/01 04:13:04;;;;;;;26.58;23.55;;;;;;;;;;6215466;23;20008;-78
2022/09/01 04:15:33;;;;;;;20.30;18.38;;;;;;;;;;6214840;23;20032;-77
2022/09/01 04:18:09;;;;;;;28.27;25.58;;;;;;;;;;6215459;23;20383;-78
2022/09/01 04:20:55;;;;;;;21.17;19.20;;;;;;;;;;6215164;23;20011;-78
2022/09/01 04:23:41;;;;;;;47.83;42.63;;;;;;;;;;6214894;23;20028;-77
2022/09/01 04:26:13;;;;;;;51.22;42.83;;;;;;;;;;6215145;23;20033;-77
2022/09/01 04:28:40;;;;;;;22.40;20.05;;;;;;;;;;6215487;23;20000;-77
2022/09/01 04:31:08;;;;;;;19.77;17.85;;;;;;;;;;6214949;23;20004;-78
2022/09/01 04:33:38;;;;;;;22.05;19.70;;;;;;;;;;6215310;23;20001;-78
2022/09/01 04:36:05;;;;;;;20.85;18.23;;;;;;;;;;6215175;23;20332;-78
2022/09/01 04:38:34;;;;;;;22.48;20.17;;;;;;;;;;6215034;23;20073;-77
2022/09/01 04:41:05;;;;;;;21.35;19.17;;;;;;;;;;6214815;23;20012;-78
2022/09/01 04:43:31;;;;;;;22.42;20.20;;;;;;;;;;6214701;23;20004;-78
2022/09/01 04:45:58;;;;;;;20.80;18.60;;;;;;;;;;6214809;23;20380;-77
2022/09/01 04:48:25;;;;;;;20.50;18.27;;;;;;;;;;6214860;23;20007;-77
2022/09/01 04:50:52;;;;;;;20.23;18.02;;;;;;;;;;6214622;23;20005;-77
2022/09/01 04:53:18;;;;;;;21.17;18.98;;;;;;;;;;6214965;23;20004;-77
2022/09/01 04:55:46;;;;;;;22.92;20.25;;;;;;;;;;6214651;23;20008;-77
2022/09/01 04:58:18;;;;;;;22.90;18.60;;;;;;;;;;6214845;23;20033;-78
2022/09/01 05:00:46;;;;;;;30.55;19.75;;;;;;;;;;6214556;23;20036;-77
2022/09/01 05:03:14;;;;;;;24.88;19.33;;;;;;;;;;6214895;23;20004;-77
2022/09/01 05:05:41;;;;;;;22.77;18.85;;;;;;;;;;6214648;23;20001;-77
2022/09/01 05:08:12;;;;;;;31.92;28.65;;;;;;;;;;6214936;23;20000;-77
2022/09/01 05:10:41;;;;;;;30.70;27.40;;;;;;;;;;6214608;23;20028;-78
2022/09/01 05:13:08;;;;;;;31.48;26.58;;;;;;;;;;6213916;23;20012;-77
2022/09/01 05:15:36;;;;;;;34.60;26.77;;;;;;;;;;6214213;23;20019;-77
2022/09/01 05:18:08;;;;;;;27.20;22.23;;;;;;;;;;6214451;23;20005;-78
2022/09/01 05:20:41;;;;;;;25.50;20.75;;;;;;;;;;6214071;23;20436;-77
2022/09/01 05:23:18;;;;;;;21.90;19.52;;;;;;;;;;6214308;23;20000;-77
2022/09/01 05:25:45;;;;;;;22.00;19.70;;;;;;;;;;6209716;23;20080;-77
2022/09/01 05:28:12;;;;;;;21.00;18.75;;;;;;;;;;6212705;23;20001;-77
2022/09/01 05:30:39;;;;;;;21.27;18.95;;;;;;;;;;6210459;23;20008;-77
2022/09/01 05:33:10;;;;;;;20.70;18.65;;;;;;;;;;6212001;23;20008;-79
2022/09/01 05:35:43;;;;;;;19.75;17.75;;;;;;;;;;6211810;23;20324;-77
2022/09/01 05:38:12;;;;;;;19.57;16.93;;;;;;;;;;6212941;23;20051;-78
2022/09/01 05:40:42;;;;;;;20.80;18.42;;;;;;;;;;6212711;23;20001;-78
2022/09/01 05:43:12;;;;;;;20.13;18.13;;;;;;;;;;6213312;23;20009;-77
2022/09/01 05:45:42;;;;;;;18.73;16.85;;;;;;;;;;6212490;23;19997;-78
2022/09/01 05:48:20;;;;;;;16.27;14.73;;;;;;;;;;6213709;23;20004;-78
2022/09/01 05:50:48;;;;;;;17.42;15.68;;;;;;;;;;6211084;23;20001;-78
2022/09/01 05:53:16;;;;;;;16.88;15.35;;;;;;;;;;6186513;23;20016;-79
2022/09/01 05:55:43;;;;;;;18.52;16.52;;;;;;;;;;6212518;23;20005;-78
2022/09/01 05:58:13;;;;;;;17.23;15.52;;;;;;;;;;6212831;23;20082;-77
2022/09/01 06:00:45;;;;;;;17.23;15.52;;;;;;;;;;6212030;23;20009;-78
2022/09/01 06:03:13;;;;;;;17.42;15.63;;;;;;;;;;6212534;23;20096;-77
2022/09/01 06:05:41;;;;;;;18.05;15.75;;;;;;;;;;6213218;23;20393;-77
2022/09/01 06:08:09;;;;;;;26.45;24.00;;;;;;;;;;6213169;23;20011;-78
2022/09/01 06:10:39;;;;;;;24.85;22.55;;;;;;;;;;6211675;23;20001;-79
2022/09/01 06:13:06;;;;;;;29.42;26.40;;;;;;;;;;6212891;23;20388;-79
2022/09/01 06:15:33;;;;;;;23.08;20.70;;;;;;;;;;6213070;23;20017;-78
2022/09/01 06:17:59;;;;;;;23.25;21.08;;;;;;;;;;6212950;23;20082;-78
2022/09/01 06:20:26;;;;;;;23.25;21.02;;;;;;;;;;6212728;23;20420;-78
2022/09/01 06:22:52;;;;;;;21.30;19.17;;;;;;;;;;6212644;23;20005;-77
2022/09/01 06:25:22;;;;;;;20.45;18.38;;;;;;;;;;6212281;23;20004;-77
2022/09/01 06:27:51;;;;;;;18.08;16.33;;;;;;;;;;6212611;23;20072;-78
2022/09/01 06:30:21;;;;;;;17.55;15.85;;;;;;;;;;6186073;23;20492;-77
2022/09/01 06:32:48;;;;;;;18.52;16.75;;;;;;;;;;6214239;23;20083;-78
2022/09/01 06:35:15;;;;;;;19.38;16.70;;;;;;;;;;6214739;23;20078;-76
2022/09/01 06:37:44;;;;;;;16.65;15.05;;;;;;;;;;6215126;23;20083;-77
2022/09/01 06:40:18;;;;;;;19.13;16.30;;;;;;;;;;6214462;23;20008;-77
2022/09/01 06:42:46;;;;;;;19.45;17.48;;;;;;;;;;6214622;23;20040;-75
2022/09/01 06:45:16;;;;;;;18.35;16.45;;;;;;;;;;6214889;23;20417;-78
2022/09/01 06:47:43;;;;;;;19.20;17.27;;;;;;;;;;6214600;23;20000;-76
2022/09/01 06:50:11;;;;;;;18.55;16.70;;;;;;;;;;6213735;23;20047;-78
2022/09/01 06:52:39;;;;;;;17.60;15.75;;;;;;;;;;6213212;23;20340;-76
2022/09/01 06:55:05;;;;;;;20.33;18.10;;;;;;;;;;6213702;23;20011;-78
2022/09/01 06:57:31;;;;;;;16.23;14.65;;;;;;;;;;6214288;23;20376;-77
2022/09/01 06:59:58;;;;;;;16.05;14.52;;;;;;;;;;6213963;23;20001;-75
2022/09/01 07:02:24;;;;;;;15.95;14.48;;;;;;;;;;6213005;23;20315;-76
2022/09/01 07:04:51;;;;;;;16.42;14.82;;;;;;;;;;6213901;23;20451;-76
2022/09/01 07:07:17;;;;;;;16.67;15.18;;;;;;;;;;6213817;23;20027;-75
2022/09/01 07:09:43;;;;;;;16.40;14.85;;;;;;;;;;6214604;23;20008;-76
2022/09/01 07:12:09;;;;;;;16.13;14.63;;;;;;;;;;6186005;23;20008;-77
2022/09/01 07:14:35;;;;;;;18.88;15.98;;;;;;;;;;6214016;23;20020;-78
2022/09/01 07:17:01;;;;;;;16.40;14.73;;;;;;;;;;6213038;23;20024;-79
2022/09/01 07:19:27;;;;;;;16.63;14.93;;;;;;;;;;6212817;23;20007;-78
2022/09/01 07:21:54;;;;;;;16.70;15.20;;;;;;;;;;6213695;23;20001;-78
2022/09/01 07:24:20;;;;;;;17.55;15.75;;;;;;;;;;6213440;23;20047;-78
2022/09/01 07:26:49;;;;;;;15.40;13.82;;;;;;;;;;6212685;23;19996;-76
2022/09/01 07:29:16;;;;;;;16.60;15.02;;;;;;;;;;6213578;23;20011;-77
2022/09/01 07:31:43;;;;;;;17.38;15.40;;;;;;;;;;6212946;23;20411;-75
2022/09/01 07:34:11;;;;;;;19.33;14.43;;;;;;;;;;6186529;23;20018;-77
2022/09/01 07:36:38;;;;;;;15.25;13.75;;;;;;;;;;6213904;23;20009;-78
2022/09/01 07:39:04;;;;;;;15.20;13.70;;;;;;;;;;6212170;23;20005;-76
2022/09/01 07:41:33;;;;;;;15.40;13.75;;;;;;;;;;6213300;23;20023;-76
2022/09/01 07:44:01;;;;;;;16.40;14.70;;;;;;;;;;6213682;23;20091;-75
2022/09/01 07:46:30;;;;;;;15.73;14.13;;;;;;;;;;6214026;23;20008;-77
2022/09/01 07:48:57;;;;;;;16.55;14.98;;;;;;;;;;6214095;23;20004;-77
2022/09/01 07:51:25;;;;;;;15.80;13.93;;;;;;;;;;6212685;23;20356;-76
2022/09/01 07:53:51;;;;;;;15.10;13.60;;;;;;;;;;6214336;23;20008;-76
2022/09/01 07:56:19;;;;;;;17.02;15.20;;;;;;;;;;6187463;23;20008;-78
2022/09/01 07:58:46;;;;;;;15.60;14.10;;;;;;;;;;6213902;23;20000;-78
2022/09/01 08:01:17;;;;;;;14.85;13.50;;;;;;;;;;6213299;23;20007;-80
2022/09/01 08:03:44;;;;;;;14.73;13.15;;;;;;;;;;6212967;23;20058;-77
2022/09/01 08:06:12;;;;;;;16.25;14.57;;;;;;;;;;6212397;23;20012;-77
2022/09/01 08:08:38;;;;;;;15.65;14.15;;;;;;;;;;6213772;23;20072;-76
2022/09/01 08:11:05;;;;;;;16.23;14.55;;;;;;;;;;6214280;23;20005;-78
2022/09/01 08:13:32;;;;;;;16.17;14.55;;;;;;;;;;6214430;23;20031;-78
2022/09/01 08:15:58;;;;;;;15.88;14.10;;;;;;;;;;6212213;23;20016;-79
2022/09/01 08:18:24;;;;;;;15.57;14.07;;;;;;;;;;6213095;23;20004;-78
2022/09/01 08:20:50;;;;;;;15.70;12.88;;;;;;;;;;6213358;23;20379;-77
2022/09/01 08:23:18;;;;;;;16.38;14.75;;;;;;;;;;6213127;23;20012;-77
2022/09/01 08:25:44;;;;;;;15.90;14.10;;;;;;;;;;6212530;23;20008;-77
2022/09/01 08:28:11;;;;;;;15.80;14.20;;;;;;;;;;6213394;23;20001;-77
2022/09/01 08:30:38;;;;;;;16.58;15.07;;;;;;;;;;6211760;23;20000;-75
2022/09/01 08:33:04;;;;;;;16.88;15.30;;;;;;;;;;6213645;23;20001;-76
2022/09/01 08:35:30;;;;;;;16.40;14.75;;;;;;;;;;6212753;23;20005;-76
2022/09/01 08:37:57;;;;;;;14.18;12.85;;;;;;;;;;6212946;23;20008;-78
2022/09/01 08:40:24;;;;;;;16.98;15.05;;;;;;;;;;6212852;23;20072;-74
2022/09/01 08:42:50;;;;;;;15.52;14.23;;;;;;;;;;6212530;23;20004;-75
2022/09/01 08:45:43;;;;;;;19.05;15.25;;;;;;;;;;6212126;23;20030;-75
2022/09/01 08:48:15;;;;;;;17.02;15.10;;;;;;;;;;6167389;23;19996;-75
2022/09/01 08:50:43;;;;;;;14.73;13.38;;;;;;;;;;6212659;23;20001;-76
2022/09/01 08:53:21;;;;;;;16.20;14.57;;;;;;;;;;6212008;23;20009;-77
2022/09/01 08:55:49;;;;;;;13.90;12.50;;;;;;;;;;6212289;23;20432;-74
2022/09/01 08:58:16;;;;;;;22.00;15.65;;;;;;;;;;6212678;23;20005;-75
2022/09/01 09:00:45;;;;;;;15.70;14.10;;;;;;;;;;6212932;23;20050;-76
2022/09/01 09:03:30;;;;;;;15.90;14.48;;;;;;;;;;6213023;23;20039;-76
2022/09/01 09:06:05;;;;;;;17.10;15.15;;;;;;;;;;6212601;23;20502;-77
2022/09/01 09:08:41;;;;;;;16.48;13.52;;;;;;;;;;6213481;23;20454;-76
2022/09/01 09:11:26;;;;;;;14.98;12.98;;;;;;;;;;6212936;23;20005;-77
2022/09/01 09:14:12;;;;;;;15.65;14.15;;;;;;;;;;6213746;23;20005;-77
2022/09/01 09:16:44;;;;;;;16.02;14.52;;;;;;;;;;6152258;23;20012;-76
2022/09/01 09:19:28;;;;;;;14.77;13.48;;;;;;;;;;6212672;23;20004;-77
2022/09/01 09:21:55;;;;;;;15.02;13.80;;;;;;;;;;6212137;23;20008;-76
2022/09/01 09:24:25;;;;;;;16.48;13.88;;;;;;;;;;6186346;23;20009;-79
2022/09/01 09:26:52;;;;;;;19.08;14.85;;;;;;;;;;6212230;23;19996;-77
2022/09/01 09:29:20;;;;;;;15.18;12.95;;;;;;;;;;6211622;23;20028;-77
2022/09/01 09:32:00;;;;;;;16.20;14.60;;;;;;;;;;6212480;23;20516;-78
2022/09/01 09:34:31;;;;;;;16.02;14.43;;;;;;;;;;6212508;23;20005;-77
2022/09/01 09:37:00;;;;;;;14.55;13.15;;;;;;;;;;6212288;23;20444;-77
2022/09/01 09:39:27;;;;;;;14.77;13.27;;;;;;;;;;6212930;23;20000;-80
2022/09/01 09:42:07;;;;;;;14.57;13.23;;;;;;;;;;6212759;23;20058;-78
2022/09/01 09:44:35;;;;;;;14.55;13.10;;;;;;;;;;6185853;23;20021;-79
2022/09/01 09:47:02;;;;;;;15.73;14.20;;;;;;;;;;6212391;23;20012;-78
2022/09/01 09:49:31;;;;;;;15.07;13.65;;;;;;;;;;6185667;23;20409;-77
2022/09/01 09:52:09;;;;;;;15.63;14.00;;;;;;;;;;6212408;23;20009;-78
2022/09/01 09:54:37;;;;;;;14.95;13.65;;;;;;;;;;6212919;23;19997;-75
2022/09/01 09:57:22;;;;;;;16.42;14.73;;;;;;;;;;6212515;23;20118;-77
2022/09/01 09:59:54;;;;;;;14.77;13.38;;;;;;;;;;6212168;23;20012;-77
2022/09/01 10:02:21;;;;;;;16.35;14.57;;;;;;;;;;6212307;23;20012;-77
2022/09/01 10:04:47;;;;;;;14.75;12.90;;;;;;;;;;6186275;23;20082;-78
2022/09/01 10:07:31;;;;;;;14.02;12.68;;;;;;;;;;6213210;23;20083;-76
2022/09/01 10:12:33;;;;;;;12.73;11.63;;;;;;;;;;6221588;23;20300;-75
2022/09/01 10:15:17;;;;;;;14.60;13.15;;;;;;;;;;6214018;23;20016;-76
2022/09/01 10:17:44;;;;;;;19.00;15.85;;;;;;;;;;6213651;23;20028;-76
2022/09/01 10:20:17;;;;;;;14.68;13.23;;;;;;;;;;6214521;23;20028;-76
2022/09/01 10:22:43;;;;;;;16.80;14.38;;;;;;;;;;6214143;23;20039;-75
2022/09/01 10:25:11;;;;;;;15.60;13.57;;;;;;;;;;6214464;23;20084;-78
2022/09/01 10:27:40;;;;;;;14.93;13.48;;;;;;;;;;6214859;23;19996;-78
2022/09/01 10:30:06;;;;;;;13.10;11.70;;;;;;;;;;6213691;23;20035;-76
2022/09/01 10:32:34;;;;;;;16.45;12.48;;;;;;;;;;6214513;23;20035;-77
2022/09/01 10:35:03;;;;;;;14.07;12.57;;;;;;;;;;6214698;23;20107;-77
2022/09/01 10:37:30;;;;;;;12.55;11.35;;;;;;;;;;6215183;23;20001;-77
2022/09/01 10:40:11;;;;;;;13.30;12.00;;;;;;;;;;6214019;23;20003;-76
2022/09/01 10:42:37;;;;;;;16.75;14.98;;;;;;;;;;6214163;23;20000;-78
2022/09/01 10:45:04;;;;;;;17.17;15.25;;;;;;;;;;6186817;23;20020;-77
2022/09/01 10:47:31;;;;;;;13.85;12.50;;;;;;;;;;6214788;23;20036;-77
2022/09/01 10:49:59;;;;;;;19.33;13.00;;;;;;;;;;6213800;23;20047;-77
2022/09/01 10:52:41;;;;;;;12.75;11.48;;;;;;;;;;6214607;23;20004;-77
2022/09/01 10:55:14;;;;;;;13.07;11.68;;;;;;;;;;6186477;23;20063;-77
2022/09/01 10:57:44;;;;;;;13.80;12.45;;;;;;;;;;6214495;23;20005;-79
2022/09/01 11:00:19;;;;;;;19.30;11.88;;;;;;;;;;6214245;23;20040;-77
2022/09/01 11:03:04;;;;;;;11.50;9.82;;;;;;;;;;6214539;23;20491;-77
2022/09/01 11:05:50;;;;;;;12.20;11.10;;;;;;;;;;6214684;23;20040;-78
2022/09/01 11:08:22;;;;;;;11.68;9.48;;;;;;;;;;6213987;23;20416;-78
2022/09/01 11:10:54;;;;;;;11.30;10.10;;;;;;;;;;6212471;23;20035;-77
2022/09/01 11:13:26;;;;;;;11.20;10.15;;;;;;;;;;6214262;23;20016;-78
2022/09/01 11:15:53;;;;;;;10.07;9.15;;;;;;;;;;6213554;23;20451;-78
2022/09/01 11:18:26;;;;;;;13.15;11.85;;;;;;;;;;6214102;23;20000;-79
2022/09/01 11:20:54;;;;;;;11.18;9.75;;;;;;;;;;6214249;23;20004;-79
2022/09/01 11:23:23;;;;;;;14.55;10.23;;;;;;;;;;6214392;23;20009;-79
2022/09/01 11:25:54;;;;;;;11.30;9.85;;;;;;;;;;6213616;23;20075;-79
2022/09/01 11:28:23;;;;;;;11.43;10.32;;;;;;;;;;6213711;23;19996;-80
2022/09/01 11:31:12;;;;;;;12.50;10.25;;;;;;;;;;6214165;23;20413;-78
2022/09/01 11:33:50;;;;;;;13.25;10.85;;;;;;;;;;6198179;23;20440;-76
2022/09/01 11:36:20;;;;;;;12.15;10.93;;;;;;;;;;6212872;23;20058;-77
2022/09/01 11:38:53;;;;;;;14.98;10.55;;;;;;;;;;6214361;23;20059;-77
2022/09/01 11:41:45;;;;;;;11.68;10.52;;;;;;;;;;6213563;23;20614;-76
2022/09/01 11:44:30;;;;;;;12.30;11.13;;;;;;;;;;6165106;23;20016;-78
2022/09/01 11:47:01;;;;;;;15.30;13.57;;;;;;;;;;6214093;23;20005;-77
2022/09/01 11:49:31;;;;;;;12.02;10.82;;;;;;;;;;6212848;23;20009;-77
2022/09/01 11:51:59;;;;;;;11.32;10.05;;;;;;;;;;6213153;23;20007;-76
2022/09/01 11:54:25;;;;;;;10.05;9.07;;;;;;;;;;6213824;23;20440;-76
2022/09/01 11:56:52;;;;;;;12.43;10.13;;;;;;;;;;6213200;23;19997;-77
2022/09/01 11:59:35;;;;;;;10.15;8.80;;;;;;;;;;6213275;23;20004;-79
2022/09/01 12:02:02;;;;;;;9.27;8.43;;;;;;;;;;6213538;23;20028;-77
2022/09/01 12:04:48;;;;;;;9.38;8.18;;;;;;;;;;6213550;23;20009;-78
2022/09/01 12:07:24;;;;;;;12.30;10.18;;;;;;;;;;6213361;23;20004;-77
2022/09/01 12:09:50;;;;;;;9.75;8.75;;;;;;;;;;6213135;23;20803;-77
2022/09/01 12:12:35;;;;;;;10.23;8.50;;;;;;;;;;6212717;23;20421;-76
2022/09/01 12:15:24;;;;;;;17.58;11.02;;;;;;;;;;6213206;23;20020;-77
2022/09/01 12:17:51;;;;;;;12.98;8.85;;;;;;;;;;6197257;23;20016;-78
2022/09/01 12:20:38;;;;;;;11.02;9.93;;;;;;;;;;6213389;23;20005;-78
2022/09/01 12:23:14;;;;;;;8.60;7.60;;;;;;;;;;6213572;23;20005;-78
2022/09/01 12:25:41;;;;;;;9.25;8.32;;;;;;;;;;6213749;23;20004;-77
2022/09/01 12:28:08;;;;;;;10.30;9.30;;;;;;;;;;6186704;23;20009;-79
2022/09/01 12:30:38;;;;;;;13.80;8.50;;;;;;;;;;6213426;23;20337;-77
2022/09/01 12:33:05;;;;;;;9.77;8.77;;;;;;;;;;6213788;23;20015;-78
2022/09/01 12:35:31;;;;;;;9.15;8.25;;;;;;;;;;6213701;23;20008;-78
2022/09/01 12:38:16;;;;;;;10.18;9.10;;;;;;;;;;6213171;23;20022;-70
2022/09/01 12:40:42;;;;;;;8.13;7.28;;;;;;;;;;6212994;23;20325;-79
2022/09/01 12:43:08;;;;;;;9.90;8.55;;;;;;;;;;6186273;23;20426;-77
2022/09/01 12:45:37;;;;;;;10.20;9.27;;;;;;;;;;6213307;23;20000;-80
2022/09/01 12:48:03;;;;;;;9.77;8.20;;;;;;;;;;6213244;23;20001;-78
2022/09/01 12:50:30;;;;;;;11.10;8.77;;;;;;;;;;6212518;23;20429;-77
2022/09/01 12:53:02;;;;;;;9.85;8.85;;;;;;;;;;6212345;23;20016;-77
2022/09/01 12:55:33;;;;;;;9.05;8.15;;;;;;;;;;6212791;23;20027;-78
2022/09/01 12:58:00;;;;;;;10.25;9.32;;;;;;;;;;6213670;23;19997;-77
2022/09/01 13:00:28;;;;;;;8.70;7.80;;;;;;;;;;6214277;23;20011;-78
2022/09/01 13:02:54;;;;;;;8.80;7.95;;;;;;;;;;6214686;23;20008;-77
2022/09/01 13:05:26;;;;;;;12.57;7.95;;;;;;;;;;6214355;23;20000;-78
2022/09/01 13:07:53;;;;;;;13.43;8.77;;;;;;;;;;6213724;23;20000;-77
2022/09/01 13:10:20;;;;;;;10.32;8.23;;;;;;;;;;6214466;23;20009;-77
2022/09/01 13:12:46;;;;;;;8.45;7.30;;;;;;;;;;6213766;23;20308;-77
2022/09/01 13:15:13;;;;;;;7.95;7.05;;;;;;;;;;6212698;23;20023;-77
2022/09/01 13:17:39;;;;;;;9.23;8.00;;;;;;;;;;6212857;23;20451;-77
2022/09/01 13:20:06;;;;;;;18.38;12.73;;;;;;;;;;6212757;23;20005;-77
2022/09/01 13:22:32;;;;;;;8.57;7.65;;;;;;;;;;6212136;23;20011;-76
2022/09/01 13:24:59;;;;;;;8.15;6.88;;;;;;;;;;6212303;23;20003;-76
2022/09/01 13:27:25;;;;;;;8.45;7.75;;;;;;;;;;6212053;23;20072;-76
2022/09/01 13:29:51;;;;;;;9.20;7.43;;;;;;;;;;6212678;23;20004;-76
2022/09/01 13:32:18;;;;;;;10.30;7.15;;;;;;;;;;6212552;23;20423;-76
2022/09/01 13:34:44;;;;;;;9.20;7.20;;;;;;;;;;6212409;23;20007;-75
2022/09/01 13:37:10;;;;;;;8.68;7.35;;;;;;;;;;6212730;23;20009;-75
2022/09/01 13:39:36;;;;;;;7.85;7.15;;;;;;;;;;6212383;23;20079;-76
2022/09/01 13:42:02;;;;;;;7.28;6.57;;;;;;;;;;6212610;23;20031;-76
2022/09/01 13:44:28;;;;;;;7.40;5.68;;;;;;;;;;6212339;23;20025;-76
2022/09/01 13:46:54;;;;;;;7.60;6.75;;;;;;;;;;6212999;23;20050;-77
2022/09/01 13:49:20;;;;;;;7.47;6.32;;;;;;;;;;6212423;23;20459;-76
2022/09/01 13:51:53;;;;;;;7.65;6.95;;;;;;;;;;6212672;23;19997;-76
2022/09/01 13:54:19;;;;;;;7.80;6.60;;;;;;;;;;6212247;23;20080;-76
2022/09/01 13:56:46;;;;;;;6.55;5.88;;;;;;;;;;6212318;23;20023;-75
2022/09/01 13:59:12;;;;;;;5.93;5.32;;;;;;;;;;6212451;23;20001;-75
2022/09/01 14:01:41;;;;;;;11.13;6.63;;;;;;;;;;6211975;23;20005;-76
2022/09/01 14:04:07;;;;;;;6.72;5.65;;;;;;;;;;6212190;23;20005;-76
2022/09/01 14:06:38;;;;;;;7.60;5.43;;;;;;;;;;6212167;23;19997;-76
2022/09/01 14:09:04;;;;;;;7.72;5.35;;;;;;;;;;6212386;23;20017;-76
2022/09/01 14:11:31;;;;;;;7.25;5.57;;;;;;;;;;6211901;23;20344;-75
2022/09/01 14:13:57;;;;;;;6.28;5.70;;;;;;;;;;6212971;23;20009;-76
2022/09/01 14:16:23;;;;;;;7.63;5.50;;;;;;;;;;6211876;23;20020;-77
2022/09/01 14:18:49;;;;;;;7.13;5.95;;;;;;;;;;6212697;23;20004;-76
2022/09/01 14:21:16;;;;;;;7.95;7.18;;;;;;;;;;6212613;23;20051;-75
2022/09/01 14:23:42;;;;;;;7.28;6.57;;;;;;;;;;6212063;23;20080;-76
2022/09/01 14:26:10;;;;;;;7.40;6.05;;;;;;;;;;6213248;23;20066;-75
2022/09/01 14:28:36;;;;;;;7.07;6.38;;;;;;;;;;6213526;23;20001;-76
2022/09/01 14:31:07;;;;;;;7.38;6.68;;;;;;;;;;6212607;23;19997;-76
2022/09/01 14:33:33;;;;;;;6.25;5.65;;;;;;;;;;6213379;23;20028;-75
2022/09/01 14:35:59;;;;;;;7.38;6.68;;;;;;;;;;6214398;23;20004;-76
2022/09/01 14:38:25;;;;;;;7.63;6.38;;;;;;;;;;6215043;23;20005;-76